createdAt,value
2022-12-31T00:00:11.264Z,100424.47
2022-12-31T00:00:46.975Z,100420.59
2022-12-31T00:01:19.970Z,100420.84
2022-12-31T00:01:51.846Z,100420.00
2022-12-31T00:02:23.940Z,100425.03
2022-12-31T00:02:56.042Z,100421.38
2022-12-31T00:03:28.185Z,100421.31
2022-12-31T00:04:00.171Z,100423.59
2022-12-31T00:04:32.049Z,100421.06
2022-12-31T00:05:04.529Z,100414.62
2022-12-31T00:05:37.147Z,100415.00
2022-12-31T00:06:16.101Z,100406.56
2022-12-31T00:06:48.239Z,100411.09
2022-12-31T00:07:20.122Z,100411.34
2022-12-31T00:07:52.064Z,100416.78
2022-12-31T00:08:24.026Z,100408.62
2022-12-31T00:08:58.143Z,100406.66
2022-12-31T00:09:29.999Z,100412.47
2022-12-31T00:10:02.770Z,100411.00
2022-12-31T00:10:41.249Z,100408.03
2022-12-31T00:11:14.231Z,100410.78
2022-12-31T00:11:46.058Z,100413.59
2022-12-31T00:12:17.925Z,100416.69
2022-12-31T00:12:50.141Z,100414.16
2022-12-31T00:13:22.027Z,100411.84
2022-12-31T00:13:54.812Z,100417.81
2022-12-31T00:14:26.698Z,100415.81
2022-12-31T00:14:58.582Z,100416.69
2022-12-31T00:15:30.757Z,100414.16
2022-12-31T00:16:12.530Z,100423.37
2022-12-31T00:16:44.852Z,100416.78
2022-12-31T00:17:16.861Z,100421.31
2022-12-31T00:17:48.862Z,100423.59
2022-12-31T00:18:20.769Z,100425.88
2022-12-31T00:18:55.449Z,100421.97
2022-12-31T00:19:27.286Z,100420.97
2022-12-31T00:19:59.111Z,100431.75
2022-12-31T00:20:31.278Z,100431.09
2022-12-31T00:21:10.087Z,100424.84
2022-12-31T00:21:43.517Z,100429.69
2022-12-31T00:22:15.697Z,100420.81
2022-12-31T00:22:47.513Z,100422.41
2022-12-31T00:23:19.349Z,100419.63
2022-12-31T00:23:52.692Z,100424.34
2022-12-31T00:24:24.584Z,100422.69
2022-12-31T00:24:56.419Z,100426.72
2022-12-31T00:25:28.325Z,100417.22
2022-12-31T00:26:04.806Z,100419.16
2022-12-31T00:26:36.760Z,100412.19
2022-12-31T00:27:08.606Z,100422.75
2022-12-31T00:27:40.729Z,100425.69
2022-12-31T00:28:12.555Z,100428.06
2022-12-31T00:28:45.137Z,100428.22
2022-12-31T00:29:16.959Z,100422.41
2022-12-31T00:29:48.779Z,100421.94
2022-12-31T00:30:20.665Z,100425.47
2022-12-31T00:30:52.577Z,100425.78
2022-12-31T00:31:29.887Z,100431.16
2022-12-31T00:32:01.745Z,100425.03
2022-12-31T00:32:33.610Z,100424.25
2022-12-31T00:33:05.754Z,100426.00
2022-12-31T00:33:38.337Z,100437.47
2022-12-31T00:34:10.171Z,100426.94
2022-12-31T00:34:42.030Z,100425.03
2022-12-31T00:35:13.919Z,100420.66
2022-12-31T00:35:45.741Z,100426.97
2022-12-31T00:36:23.721Z,100423.47
2022-12-31T00:36:55.579Z,100425.72
2022-12-31T00:37:27.541Z,100423.13
2022-12-31T00:37:59.409Z,100423.47
2022-12-31T00:38:31.822Z,100426.87
2022-12-31T00:39:05.966Z,100430.53
2022-12-31T00:39:37.835Z,100435.41
2022-12-31T00:40:10.569Z,100425.72
2022-12-31T00:40:42.398Z,100422.22
2022-12-31T00:41:16.055Z,100427.75
2022-12-31T00:41:47.880Z,100423.50
2022-12-31T00:42:19.748Z,100426.56
2022-12-31T00:42:51.672Z,100420.22
2022-12-31T00:43:23.517Z,100424.16
2022-12-31T00:43:55.847Z,100426.03
2022-12-31T00:44:27.721Z,100424.22
2022-12-31T00:44:59.590Z,100425.69
2022-12-31T00:45:31.437Z,100422.47
2022-12-31T00:46:03.828Z,100427.69
2022-12-31T00:47:09.086Z,100429.03
2022-12-31T00:47:40.967Z,100434.72
2022-12-31T00:48:12.812Z,100436.03
2022-12-31T00:48:44.854Z,100442.66
2022-12-31T00:49:17.158Z,100436.87
2022-12-31T00:49:49.249Z,100438.47
2022-12-31T00:50:21.130Z,100445.81
2022-12-31T00:50:54.209Z,100447.94
2022-12-31T00:51:27.814Z,100444.53
2022-12-31T00:51:59.907Z,100450.84
2022-12-31T00:52:31.759Z,100435.75
2022-12-31T00:53:03.588Z,100447.69
2022-12-31T00:53:35.716Z,100446.69
2022-12-31T00:54:08.575Z,100448.91
2022-12-31T00:54:40.702Z,100448.00
2022-12-31T00:55:12.645Z,100449.47
2022-12-31T00:55:44.617Z,100446.91
2022-12-31T00:56:19.382Z,100451.09
2022-12-31T00:56:51.226Z,100456.94
2022-12-31T00:57:23.085Z,100453.16
2022-12-31T00:57:54.922Z,100452.69
2022-12-31T00:58:27.168Z,100450.09
2022-12-31T00:59:00.191Z,100451.03
2022-12-31T00:59:32.069Z,100452.50
2022-12-31T01:00:07.279Z,100450.56
2022-12-31T01:00:39.644Z,100454.97
2022-12-31T01:01:15.059Z,100454.03
2022-12-31T01:01:47.136Z,100457.59
2022-12-31T01:02:19.283Z,100460.78
2022-12-31T01:02:51.317Z,100460.78
2022-12-31T01:03:23.613Z,100458.53
2022-12-31T01:03:59.699Z,100458.09
2022-12-31T01:04:31.542Z,100452.06
2022-12-31T01:05:03.440Z,100452.84
2022-12-31T01:05:36.531Z,100461.72
2022-12-31T01:06:08.680Z,100452.53
2022-12-31T01:06:41.722Z,100451.56
2022-12-31T01:07:13.568Z,100456.44
2022-12-31T01:07:45.463Z,100454.34
2022-12-31T01:08:18.329Z,100456.31
2022-12-31T01:08:51.058Z,100456.66
2022-12-31T01:09:22.915Z,100454.56
2022-12-31T01:09:54.864Z,100457.13
2022-12-31T01:10:45.258Z,100454.69
2022-12-31T01:11:24.023Z,100454.03
2022-12-31T01:11:56.003Z,100455.00
2022-12-31T01:12:27.889Z,100456.63
2022-12-31T01:12:59.820Z,100459.22
2022-12-31T01:13:31.661Z,100454.53
2022-12-31T01:14:21.390Z,100458.63
2022-12-31T01:14:53.246Z,100456.97
2022-12-31T01:15:25.223Z,100452.78
2022-12-31T01:15:57.109Z,100457.44
2022-12-31T01:16:37.130Z,100460.25
2022-12-31T01:17:09.075Z,100455.22
2022-12-31T01:17:40.915Z,100451.69
2022-12-31T01:18:13.555Z,100458.78
2022-12-31T01:18:45.964Z,100457.50
2022-12-31T01:19:21.596Z,100455.25
2022-12-31T01:19:53.615Z,100457.91
2022-12-31T01:20:25.527Z,100456.72
2022-12-31T01:21:03.355Z,100455.97
2022-12-31T01:21:37.240Z,100456.31
2022-12-31T01:22:09.119Z,100456.63
2022-12-31T01:22:40.987Z,100448.84
2022-12-31T01:23:12.938Z,100448.38
2022-12-31T01:23:45.595Z,100453.78
2022-12-31T01:24:17.949Z,100458.50
2022-12-31T01:24:49.811Z,100458.13
2022-12-31T01:25:21.756Z,100458.28
2022-12-31T01:25:53.594Z,100450.97
2022-12-31T01:26:25.747Z,100451.09
2022-12-31T01:26:58.044Z,100450.19
2022-12-31T01:27:30.906Z,100447.25
2022-12-31T01:28:03.583Z,100444.81
2022-12-31T01:28:36.166Z,100447.28
2022-12-31T01:29:09.448Z,100453.78
2022-12-31T01:29:41.300Z,100449.19
2022-12-31T01:30:13.383Z,100449.19
2022-12-31T01:30:45.259Z,100445.00
2022-12-31T01:31:19.339Z,100443.22
2022-12-31T01:31:51.300Z,100449.84
2022-12-31T01:32:23.449Z,100446.94
2022-12-31T01:32:55.357Z,100443.09
2022-12-31T01:33:27.229Z,100440.84
2022-12-31T01:33:59.143Z,100445.69
2022-12-31T01:34:31.051Z,100450.87
2022-12-31T01:35:02.939Z,100446.38
2022-12-31T01:35:36.170Z,100446.69
2022-12-31T01:36:21.731Z,100441.66
2022-12-31T01:36:57.046Z,100445.91
2022-12-31T01:37:29.244Z,100442.12
2022-12-31T01:38:01.157Z,100448.59
2022-12-31T01:38:34.375Z,100447.94
2022-12-31T01:39:08.482Z,100446.28
2022-12-31T01:39:40.311Z,100445.16
2022-12-31T01:40:12.601Z,100446.47
2022-12-31T01:40:44.597Z,100453.44
2022-12-31T01:41:21.881Z,100454.44
2022-12-31T01:41:53.739Z,100455.75
2022-12-31T01:42:25.582Z,100459.50
2022-12-31T01:42:58.470Z,100458.53
2022-12-31T01:44:11.483Z,100456.41
2022-12-31T01:44:48.831Z,100464.03
2022-12-31T01:45:20.740Z,100463.84
2022-12-31T01:45:54.590Z,100461.91
2022-12-31T01:46:55.187Z,100461.88
2022-12-31T01:47:37.638Z,100466.53
2022-12-31T01:48:14.149Z,100466.66
2022-12-31T01:48:50.962Z,100457.94
2022-12-31T01:49:54.663Z,100462.19
2022-12-31T01:50:33.716Z,100470.00
2022-12-31T01:51:08.861Z,100465.81
2022-12-31T01:51:43.184Z,100460.97
2022-12-31T01:52:18.073Z,100472.78
2022-12-31T01:52:58.405Z,100459.50
2022-12-31T01:53:31.074Z,100460.31
2022-12-31T01:54:07.114Z,100458.06
2022-12-31T01:54:44.721Z,100463.25
2022-12-31T01:55:29.546Z,100458.66
2022-12-31T01:56:02.810Z,100456.41
2022-12-31T01:56:36.065Z,100459.66
2022-12-31T01:57:09.513Z,100464.84
2022-12-31T01:57:42.994Z,100456.06
2022-12-31T01:58:19.833Z,100462.25
2022-12-31T01:58:55.852Z,100458.34
2022-12-31T01:59:29.231Z,100467.28
2022-12-31T02:00:02.527Z,100465.28
2022-12-31T02:00:36.960Z,100461.53
2022-12-31T02:01:12.238Z,100460.41
2022-12-31T02:01:46.759Z,100465.50
2022-12-31T02:02:18.939Z,100464.69
2022-12-31T02:02:51.526Z,100458.38
2022-12-31T02:03:26.176Z,100464.69
2022-12-31T02:04:00.800Z,100456.84
2022-12-31T02:04:32.783Z,100465.41
2022-12-31T02:05:13.742Z,100461.69
2022-12-31T02:05:54.558Z,100453.94
2022-12-31T02:06:37.624Z,100458.00
2022-12-31T02:07:11.353Z,100458.00
2022-12-31T02:07:43.893Z,100451.41
2022-12-31T02:08:16.278Z,100460.63
2022-12-31T02:08:48.638Z,100460.31
2022-12-31T02:09:21.068Z,100459.47
2022-12-31T02:09:54.180Z,100462.53
2022-12-31T02:10:26.264Z,100460.44
2022-12-31T02:10:58.098Z,100460.91
2022-12-31T02:11:36.398Z,100464.16
2022-12-31T02:12:09.692Z,100460.91
2022-12-31T02:12:41.808Z,100456.91
2022-12-31T02:13:15.039Z,100456.41
2022-12-31T02:13:46.982Z,100462.03
2022-12-31T02:14:22.979Z,100462.53
2022-12-31T02:14:55.992Z,100463.50
2022-12-31T02:15:38.171Z,100463.50
2022-12-31T02:16:21.288Z,100464.50
2022-12-31T02:17:27.609Z,100463.22
2022-12-31T02:18:14.185Z,100465.72
2022-12-31T02:19:04.897Z,100463.00
2022-12-31T02:19:45.570Z,100454.78
2022-12-31T02:20:49.151Z,100452.81
2022-12-31T02:22:00.857Z,100454.94
2022-12-31T02:22:54.537Z,100450.41
2022-12-31T02:23:55.647Z,100455.94
2022-12-31T02:24:57.766Z,100460.47
2022-12-31T02:25:50.965Z,100463.56
2022-12-31T02:26:44.245Z,100457.87
2022-12-31T02:28:03.035Z,100458.88
2022-12-31T02:28:49.456Z,100459.31
2022-12-31T02:29:21.231Z,100452.12
2022-12-31T02:29:58.976Z,100448.69
2022-12-31T02:30:32.758Z,100450.44
2022-12-31T02:31:26.313Z,100445.53
2022-12-31T02:32:04.226Z,100445.88
2022-12-31T02:32:51.199Z,100438.59
2022-12-31T02:33:36.206Z,100437.34
2022-12-31T02:34:26.660Z,100440.84
2022-12-31T02:35:17.980Z,100438.44
2022-12-31T02:35:55.338Z,100449.47
2022-12-31T02:36:37.956Z,100444.97
2022-12-31T02:37:14.796Z,100444.81
2022-12-31T02:37:50.316Z,100446.59
2022-12-31T02:38:31.215Z,100445.78
2022-12-31T02:39:06.101Z,100449.12
2022-12-31T02:39:39.437Z,100438.78
2022-12-31T02:40:15.979Z,100451.13
2022-12-31T02:40:48.432Z,100453.38
2022-12-31T02:41:39.741Z,100458.25
2022-12-31T02:42:12.338Z,100457.94
2022-12-31T02:42:45.563Z,100458.94
2022-12-31T02:43:19.225Z,100459.66
2022-12-31T02:43:51.092Z,100455.94
2022-12-31T02:44:25.014Z,100460.31
2022-12-31T02:44:57.229Z,100461.13
2022-12-31T02:45:40.398Z,100460.22
2022-12-31T02:46:25.912Z,100466.06
2022-12-31T02:47:09.823Z,100460.22
2022-12-31T02:48:09.936Z,100460.06
2022-12-31T02:49:03.435Z,100464.13
2022-12-31T02:49:56.878Z,100465.13
2022-12-31T02:50:58.144Z,100470.31
2022-12-31T02:52:02.323Z,100472.91
2022-12-31T02:52:48.937Z,100475.84
2022-12-31T02:53:29.437Z,100470.16
2022-12-31T02:54:10.071Z,100472.59
2022-12-31T02:54:54.136Z,100469.69
2022-12-31T02:55:31.175Z,100462.72
2022-12-31T02:56:16.533Z,100465.81
2022-12-31T02:57:07.012Z,100462.25
2022-12-31T02:57:58.057Z,100461.91
2022-12-31T02:59:00.518Z,100466.63
2022-12-31T02:59:55.945Z,100463.50
2022-12-31T03:00:51.080Z,100469.00
2022-12-31T03:02:07.029Z,100469.31
2022-12-31T03:02:42.292Z,100470.31
2022-12-31T03:03:14.482Z,100473.88
2022-12-31T03:03:46.358Z,100466.63
2022-12-31T03:04:35.790Z,100478.91
2022-12-31T03:05:09.833Z,100475.66
2022-12-31T03:05:44.773Z,100471.94
2022-12-31T03:06:16.751Z,100472.59
2022-12-31T03:06:49.644Z,100472.59
2022-12-31T03:07:28.193Z,100472.41
2022-12-31T03:08:00.043Z,100465.13
2022-12-31T03:08:31.914Z,100464.13
2022-12-31T03:09:13.135Z,100457.28
2022-12-31T03:09:45.050Z,100462.16
2022-12-31T03:10:17.129Z,100456.50
2022-12-31T03:10:49.809Z,100457.37
2022-12-31T03:11:40.461Z,100452.12
2022-12-31T03:12:32.692Z,100453.44
2022-12-31T03:13:04.576Z,100450.34
2022-12-31T03:13:36.525Z,100445.22
2022-12-31T03:14:08.396Z,100443.78
2022-12-31T03:14:40.512Z,100441.03
2022-12-31T03:15:20.065Z,100444.13
2022-12-31T03:15:52.247Z,100445.38
2022-12-31T03:16:24.208Z,100441.84
2022-12-31T03:16:56.082Z,100448.16
2022-12-31T03:17:28.270Z,100445.09
2022-12-31T03:18:40.257Z,100439.41
2022-12-31T03:19:30.561Z,100437.66
2022-12-31T03:20:20.897Z,100435.69
2022-12-31T03:21:11.992Z,100436.31
2022-12-31T03:22:02.321Z,100433.22
2022-12-31T03:22:38.797Z,100437.28
2022-12-31T03:23:13.055Z,100447.03
2022-12-31T03:23:50.247Z,100443.47
2022-12-31T03:24:42.240Z,100444.44
2022-12-31T03:25:36.387Z,100449.16
2022-12-31T03:26:11.458Z,100450.28
2022-12-31T03:26:43.404Z,100450.13
2022-12-31T03:27:15.268Z,100447.69
2022-12-31T03:27:47.875Z,100448.34
2022-12-31T03:28:22.666Z,100437.00
2022-12-31T03:28:54.535Z,100450.13
2022-12-31T03:29:26.577Z,100448.03
2022-12-31T03:29:58.413Z,100447.56
2022-12-31T03:30:31.898Z,100444.94
2022-12-31T03:31:05.382Z,100438.94
2022-12-31T03:31:37.430Z,100439.59
2022-12-31T03:32:09.368Z,100435.03
2022-12-31T03:32:42.319Z,100439.06
2022-12-31T03:33:15.795Z,100441.19
2022-12-31T03:33:47.609Z,100445.03
2022-12-31T03:34:19.468Z,100446.66
2022-12-31T03:34:51.335Z,100442.56
2022-12-31T03:35:24.155Z,100448.94
2022-12-31T03:35:56.073Z,100456.34
2022-12-31T03:36:27.925Z,100453.59
2022-12-31T03:36:59.729Z,100463.81
2022-12-31T03:37:31.635Z,100454.44
2022-12-31T03:38:04.272Z,100462.69
2022-12-31T03:38:36.752Z,100461.06
2022-12-31T03:39:08.612Z,100455.72
2022-12-31T03:39:40.484Z,100452.53
2022-12-31T03:40:13.964Z,100454.00
2022-12-31T03:40:51.453Z,100457.06
2022-12-31T03:41:23.283Z,100455.94
2022-12-31T03:41:55.130Z,100460.31
2022-12-31T03:42:27.034Z,100456.41
2022-12-31T03:42:58.937Z,100463.38
2022-12-31T03:43:30.876Z,100465.97
2022-12-31T03:44:03.267Z,100465.81
2022-12-31T03:44:35.104Z,100461.25
2022-12-31T03:45:08.339Z,100461.56
2022-12-31T03:45:40.855Z,100455.53
2022-12-31T03:46:12.792Z,100463.00
2022-12-31T03:46:44.743Z,100454.78
2022-12-31T03:47:16.567Z,100455.41
2022-12-31T03:47:48.546Z,100452.53
2022-12-31T03:48:23.707Z,100451.53
2022-12-31T03:48:55.543Z,100458.78
2022-12-31T03:49:27.770Z,100448.59
2022-12-31T03:49:59.597Z,100452.12
2022-12-31T03:50:31.497Z,100457.50
2022-12-31T03:51:03.356Z,100453.78
2022-12-31T03:51:35.209Z,100447.94
2022-12-31T03:52:08.655Z,100449.19
2022-12-31T03:52:40.861Z,100450.16
2022-12-31T03:53:12.856Z,100454.03
2022-12-31T03:53:44.693Z,100447.91
2022-12-31T03:54:16.516Z,100444.47
2022-12-31T03:54:48.658Z,100445.03
2022-12-31T03:55:20.507Z,100440.16
2022-12-31T03:55:53.566Z,100445.34
2022-12-31T03:56:25.457Z,100445.16
2022-12-31T03:57:00.267Z,100440.03
2022-12-31T03:57:32.919Z,100438.59
2022-12-31T03:58:04.827Z,100437.72
2022-12-31T03:58:36.675Z,100436.59
2022-12-31T03:59:08.582Z,100436.59
2022-12-31T03:59:40.439Z,100435.78
2022-12-31T04:00:15.696Z,100437.34
2022-12-31T04:00:47.952Z,100435.75
2022-12-31T04:01:19.967Z,100435.59
2022-12-31T04:01:51.997Z,100439.16
2022-12-31T04:02:28.875Z,100437.22
2022-12-31T04:03:01.468Z,100440.19
2022-12-31T04:03:33.361Z,100434.66
2022-12-31T04:04:05.190Z,100441.47
2022-12-31T04:04:37.039Z,100447.94
2022-12-31T04:05:09.182Z,100437.25
2022-12-31T04:05:41.242Z,100438.81
2022-12-31T04:06:13.480Z,100447.06
2022-12-31T04:06:45.378Z,100442.09
2022-12-31T04:07:17.233Z,100438.53
2022-12-31T04:07:49.220Z,100445.03
2022-12-31T04:08:21.170Z,100448.59
2022-12-31T04:08:53.033Z,100443.25
2022-12-31T04:09:24.978Z,100451.53
2022-12-31T04:09:57.207Z,100446.34
2022-12-31T04:10:29.074Z,100452.19
2022-12-31T04:11:00.911Z,100453.13
2022-12-31T04:11:33.097Z,100462.19
2022-12-31T04:12:05.947Z,100457.03
2022-12-31T04:12:38.676Z,100458.31
2022-12-31T04:13:10.489Z,100454.13
2022-12-31T04:13:42.345Z,100455.91
2022-12-31T04:14:14.285Z,100456.56
2022-12-31T04:14:46.180Z,100445.56
2022-12-31T04:15:20.671Z,100445.09
2022-12-31T04:15:52.512Z,100448.03
2022-12-31T04:16:24.341Z,100438.28
2022-12-31T04:16:56.499Z,100439.75
2022-12-31T04:17:28.527Z,100441.19
2022-12-31T04:18:00.458Z,100437.00
2022-12-31T04:18:32.295Z,100441.19
2022-12-31T04:19:04.237Z,100438.47
2022-12-31T04:19:36.124Z,100441.84
2022-12-31T04:20:08.696Z,100433.28
2022-12-31T04:20:40.529Z,100436.91
2022-12-31T04:21:12.383Z,100444.66
2022-12-31T04:21:45.172Z,100447.59
2022-12-31T04:22:17.675Z,100446.00
2022-12-31T04:22:49.542Z,100448.28
2022-12-31T04:23:21.390Z,100448.13
2022-12-31T04:23:53.216Z,100447.94
2022-12-31T04:24:25.224Z,100449.88
2022-12-31T04:24:57.053Z,100454.44
2022-12-31T04:25:28.909Z,100458.81
2022-12-31T04:26:00.825Z,100461.88
2022-12-31T04:26:33.003Z,100455.56
2022-12-31T04:27:07.767Z,100462.88
2022-12-31T04:27:43.484Z,100473.25
2022-12-31T04:28:15.555Z,100474.66
2022-12-31T04:28:48.045Z,100467.41
2022-12-31T04:29:19.907Z,100474.84
2022-12-31T04:29:51.734Z,100473.53
2022-12-31T04:30:23.564Z,100473.34
2022-12-31T04:30:55.448Z,100470.78
2022-12-31T04:31:27.864Z,100474.16
2022-12-31T04:31:59.764Z,100471.25
2022-12-31T04:32:31.610Z,100477.09
2022-12-31T04:33:03.924Z,100471.13
2022-12-31T04:33:35.741Z,100467.22
2022-12-31T04:34:07.728Z,100466.09
2022-12-31T04:34:39.714Z,100456.88
2022-12-31T04:35:12.194Z,100458.63
2022-12-31T04:35:44.294Z,100453.09
2022-12-31T04:36:16.212Z,100445.16
2022-12-31T04:36:48.072Z,100444.34
2022-12-31T04:37:19.921Z,100443.69
2022-12-31T04:37:51.767Z,100440.97
2022-12-31T04:38:23.980Z,100446.34
2022-12-31T04:38:56.001Z,100450.72
2022-12-31T04:39:28.158Z,100451.00
2022-12-31T04:40:05.406Z,100453.13
2022-12-31T04:40:58.228Z,100459.91
2022-12-31T04:41:30.139Z,100458.06
2022-12-31T04:42:02.033Z,100464.37
2022-12-31T04:42:34.708Z,100465.41
2022-12-31T04:43:06.636Z,100467.19
2022-12-31T04:43:38.856Z,100470.44
2022-12-31T04:44:10.808Z,100475.28
2022-12-31T04:44:43.360Z,100470.91
2022-12-31T04:45:15.224Z,100475.28
2022-12-31T04:45:47.683Z,100471.44
2022-12-31T04:46:22.783Z,100480.66
2022-12-31T04:46:55.133Z,100484.53
2022-12-31T04:47:26.972Z,100479.69
2022-12-31T04:47:58.902Z,100484.19
2022-12-31T04:48:30.860Z,100483.75
2022-12-31T04:49:03.780Z,100475.34
2022-12-31T04:49:35.730Z,100482.34
2022-12-31T04:50:08.103Z,100476.66
2022-12-31T04:50:40.002Z,100481.84
2022-12-31T04:51:12.207Z,100479.25
2022-12-31T04:51:44.088Z,100474.91
2022-12-31T04:52:15.902Z,100477.66
2022-12-31T04:52:47.827Z,100477.66
2022-12-31T04:53:19.661Z,100480.03
2022-12-31T04:53:51.870Z,100484.09
2022-12-31T04:54:24.135Z,100488.31
2022-12-31T04:54:56.039Z,100490.09
2022-12-31T04:55:27.874Z,100502.09
2022-12-31T04:55:59.713Z,100486.41
2022-12-31T04:56:32.856Z,100494.53
2022-12-31T04:57:04.694Z,100500.66
2022-12-31T04:57:36.543Z,100495.19
2022-12-31T04:58:08.385Z,100497.13
2022-12-31T04:58:40.732Z,100500.66
2022-12-31T04:59:13.006Z,100509.38
2022-12-31T04:59:45.161Z,100499.47
2022-12-31T05:00:17.303Z,100503.19
2022-12-31T05:00:51.996Z,100502.50
2022-12-31T05:01:24.428Z,100499.97
2022-12-31T05:01:56.508Z,100497.34
2022-12-31T05:02:30.149Z,100498.78
2022-12-31T05:03:02.188Z,100495.03
2022-12-31T05:03:34.954Z,100494.84
2022-12-31T05:04:07.056Z,100501.81
2022-12-31T05:04:39.110Z,100499.88
2022-12-31T05:05:11.323Z,100499.38
2022-12-31T05:05:43.583Z,100510.25
2022-12-31T05:06:18.366Z,100505.37
2022-12-31T05:06:50.233Z,100508.91
2022-12-31T05:07:22.096Z,100512.16
2022-12-31T05:07:53.934Z,100509.22
2022-12-31T05:08:25.793Z,100506.50
2022-12-31T05:08:57.747Z,100507.00
2022-12-31T05:09:29.774Z,100509.62
2022-12-31T05:10:01.673Z,100514.97
2022-12-31T05:10:33.874Z,100512.88
2022-12-31T05:11:06.174Z,100510.31
2022-12-31T05:11:38.248Z,100507.44
2022-12-31T05:12:10.092Z,100517.63
2022-12-31T05:12:41.946Z,100516.38
2022-12-31T05:13:14.218Z,100517.81
2022-12-31T05:13:46.060Z,100518.66
2022-12-31T05:14:17.971Z,100522.88
2022-12-31T05:14:49.852Z,100521.97
2022-12-31T05:15:21.711Z,100522.31
2022-12-31T05:15:53.943Z,100519.38
2022-12-31T05:16:27.255Z,100527.72
2022-12-31T05:17:01.089Z,100525.81
2022-12-31T05:17:33.041Z,100531.03
2022-12-31T05:18:04.995Z,100525.50
2022-12-31T05:18:37.080Z,100521.28
2022-12-31T05:19:09.630Z,100525.34
2022-12-31T05:19:41.652Z,100521.78
2022-12-31T05:20:13.520Z,100519.03
2022-12-31T05:20:46.287Z,100525.47
2022-12-31T05:21:21.212Z,100518.00
2022-12-31T05:22:12.097Z,100517.19
2022-12-31T05:22:44.132Z,100514.16
2022-12-31T05:23:17.746Z,100516.13
2022-12-31T05:23:49.740Z,100510.31
2022-12-31T05:24:21.641Z,100515.22
2022-12-31T05:24:53.509Z,100515.37
2022-12-31T05:25:25.422Z,100511.53
2022-12-31T05:25:59.583Z,100517.22
2022-12-31T05:26:31.836Z,100517.53
2022-12-31T05:27:03.957Z,100517.44
2022-12-31T05:27:37.832Z,100519.72
2022-12-31T05:28:10.195Z,100514.22
2022-12-31T05:28:42.169Z,100521.50
2022-12-31T05:29:14.192Z,100515.69
2022-12-31T05:29:46.021Z,100517.63
2022-12-31T05:30:18.789Z,100519.72
2022-12-31T05:30:51.265Z,100525.41
2022-12-31T05:31:23.318Z,100522.81
2022-12-31T05:31:55.503Z,100520.44
2022-12-31T05:32:27.548Z,100528.75
2022-12-31T05:32:59.435Z,100516.41
2022-12-31T05:33:31.467Z,100525.16
2022-12-31T05:34:03.326Z,100517.53
2022-12-31T05:34:35.160Z,100529.19
2022-12-31T05:35:07.706Z,100532.75
2022-12-31T05:35:39.560Z,100523.69
2022-12-31T05:36:11.475Z,100526.25
2022-12-31T05:36:43.330Z,100532.03
2022-12-31T05:37:15.461Z,100535.28
2022-12-31T05:37:47.323Z,100534.22
2022-12-31T05:38:19.147Z,100534.03
2022-12-31T05:38:51.011Z,100541.28
2022-12-31T05:39:22.886Z,100531.72
2022-12-31T05:39:56.732Z,100533.84
2022-12-31T05:40:28.993Z,100537.00
2022-12-31T05:41:05.936Z,100537.12
2022-12-31T05:41:37.749Z,100541.59
2022-12-31T05:42:09.590Z,100547.56
2022-12-31T05:42:41.744Z,100542.09
2022-12-31T05:43:13.612Z,100547.66
2022-12-31T05:43:45.445Z,100544.53
2022-12-31T05:44:17.284Z,100554.22
2022-12-31T05:44:49.199Z,100548.25
2022-12-31T05:45:26.812Z,100547.88
2022-12-31T05:46:03.371Z,100543.34
2022-12-31T05:46:35.227Z,100544.72
2022-12-31T05:47:07.081Z,100543.75
2022-12-31T05:47:40.437Z,100550.03
2022-12-31T05:48:12.611Z,100545.94
2022-12-31T05:48:44.479Z,100542.09
2022-12-31T05:49:16.338Z,100544.69
2022-12-31T05:49:48.297Z,100549.72
2022-12-31T05:50:20.193Z,100544.56
2022-12-31T05:50:59.263Z,100535.47
2022-12-31T05:51:31.142Z,100543.22
2022-12-31T05:52:03.005Z,100537.53
2022-12-31T05:52:34.890Z,100542.41
2022-12-31T05:53:06.740Z,100542.41
2022-12-31T05:53:38.885Z,100542.63
2022-12-31T05:54:10.767Z,100545.13
2022-12-31T05:54:42.672Z,100538.50
2022-12-31T05:55:14.625Z,100541.87
2022-12-31T05:55:47.808Z,100544.78
2022-12-31T05:56:20.625Z,100548.28
2022-12-31T05:56:52.643Z,100547.75
2022-12-31T05:57:24.558Z,100541.47
2022-12-31T05:57:56.749Z,100539.25
2022-12-31T05:58:28.701Z,100547.19
2022-12-31T05:59:00.869Z,100542.81
2022-12-31T05:59:32.887Z,100541.47
2022-12-31T06:00:07.113Z,100546.28
2022-12-31T06:00:46.158Z,100535.81
2022-12-31T06:01:18.427Z,100544.06
2022-12-31T06:01:50.413Z,100543.94
2022-12-31T06:02:23.008Z,100543.62
2022-12-31T06:02:54.921Z,100540.78
2022-12-31T06:03:26.894Z,100543.09
2022-12-31T06:03:58.908Z,100544.88
2022-12-31T06:04:30.865Z,100543.84
2022-12-31T06:05:02.759Z,100540.78
2022-12-31T06:05:34.680Z,100547.28
2022-12-31T06:06:06.785Z,100545.84
2022-12-31T06:06:38.999Z,100548.66
2022-12-31T06:07:10.816Z,100546.88
2022-12-31T06:07:42.732Z,100548.34
2022-12-31T06:08:14.567Z,100555.19
2022-12-31T06:08:50.595Z,100548.56
2022-12-31T06:09:22.706Z,100547.84
2022-12-31T06:09:54.578Z,100551.34
2022-12-31T06:10:26.457Z,100548.25
2022-12-31T06:10:58.390Z,100559.06
2022-12-31T06:11:30.595Z,100553.56
2022-12-31T06:12:02.879Z,100563.63
2022-12-31T06:12:35.476Z,100550.09
2022-12-31T06:13:08.488Z,100552.37
2022-12-31T06:13:41.402Z,100555.63
2022-12-31T06:14:13.665Z,100549.91
2022-12-31T06:14:46.036Z,100553.78
2022-12-31T06:15:18.060Z,100557.84
2022-12-31T06:15:50.053Z,100548.66
2022-12-31T06:16:22.033Z,100555.31
2022-12-31T06:16:53.928Z,100558.69
2022-12-31T06:17:26.093Z,100553.03
2022-12-31T06:17:57.933Z,100560.75
2022-12-31T06:18:29.790Z,100557.41
2022-12-31T06:19:02.468Z,100562.41
2022-12-31T06:19:34.434Z,100559.94
2022-12-31T06:20:12.418Z,100566.47
2022-12-31T06:20:45.038Z,100564.53
2022-12-31T06:21:18.339Z,100569.63
2022-12-31T06:21:50.749Z,100559.47
2022-12-31T06:22:22.831Z,100567.44
2022-12-31T06:22:54.942Z,100568.59
2022-12-31T06:23:26.966Z,100571.53
2022-12-31T06:23:59.027Z,100568.97
2022-12-31T06:24:30.984Z,100568.59
2022-12-31T06:25:03.069Z,100568.91
2022-12-31T06:25:37.000Z,100568.50
2022-12-31T06:26:09.174Z,100573.69
2022-12-31T06:26:41.091Z,100569.81
2022-12-31T06:27:12.964Z,100571.16
2022-12-31T06:27:44.818Z,100568.03
2022-12-31T06:28:20.421Z,100561.38
2022-12-31T06:28:52.668Z,100565.25
2022-12-31T06:29:24.584Z,100559.84
2022-12-31T06:29:56.495Z,100563.22
2022-12-31T06:30:28.401Z,100567.72
2022-12-31T06:31:01.178Z,100562.91
2022-12-31T06:31:33.324Z,100566.59
2022-12-31T06:32:05.655Z,100559.50
2022-12-31T06:32:37.566Z,100566.47
2022-12-31T06:33:09.468Z,100562.31
2022-12-31T06:33:42.079Z,100568.97
2022-12-31T06:34:13.953Z,100567.19
2022-12-31T06:34:45.832Z,100567.19
2022-12-31T06:35:17.794Z,100559.47